Time;durP1;ratioP1;P1;durP2;ratioP2;P2;SDS_P1;SDS_P2;PMS_P1;PMS_P2;Temp;Humidity;BMP_temperature;BMP_pressure;BME280_temperature;BME280_humidity;BME280_pressure;Samples;Min_cycle;Max_cycle;Signal;HPM_P1;HPM_P2
2023/04/02 00:01:02;;;;;;;37.63;16.42;;;;;;;13.08;64.96;98703.75;5019862;28;20110;-67
2023/04/02 00:03:44;;;;;;;40.78;17.50;;;;;;;13.91;65.19;98719.47;5019897;28;20045;-67
2023/04/02 00:06:39;;;;;;;43.03;17.25;;;;;;;13.85;65.44;98732.78;5019464;28;20040;-66
2023/04/02 00:09:14;;;;;;;36.28;17.08;;;;;;;13.81;66.04;98731.56;5045689;28;20513;-68
2023/04/02 00:11:45;;;;;;;38.95;17.30;;;;;;;13.61;66.18;98736.00;5034406;28;20052;-67
2023/04/02 00:14:47;;;;;;;41.00;17.98;;;;;;;13.61;66.12;98726.13;5050766;28;20052;-67
2023/04/02 00:17:13;;;;;;;39.40;17.45;;;;;;;13.07;66.40;98728.72;4945308;28;20057;-67
2023/04/02 00:19:53;;;;;;;43.33;18.05;;;;;;;12.97;66.29;98728.25;4945952;28;20053;-67
2023/04/02 00:22:26;;;;;;;36.17;15.85;;;;;;;13.46;67.30;98730.78;4962610;28;20152;-67
2023/04/02 00:24:53;;;;;;;42.30;17.88;;;;;;;13.10;67.19;98739.00;4979765;28;20136;-67
2023/04/02 00:27:19;;;;;;;43.38;17.52;;;;;;;13.07;66.83;98738.56;5002926;28;20524;-66
2023/04/02 00:29:50;;;;;;;40.33;17.77;;;;;;;13.15;67.95;98741.91;5039667;28;20049;-66
2023/04/02 00:32:20;;;;;;;43.97;17.98;;;;;;;13.45;67.45;98758.50;5023204;28;20055;-66
2023/04/02 00:34:46;;;;;;;46.28;16.65;;;;;;;12.97;67.21;98749.56;5005225;28;20084;-66
2023/04/02 00:37:26;;;;;;;41.22;17.73;;;;;;;13.57;67.40;98746.25;5020806;28;20071;-67
2023/04/02 00:40:06;;;;;;;43.08;17.85;;;;;;;13.62;67.38;98758.97;5005209;28;20044;-67
2023/04/02 00:42:33;;;;;;;36.83;18.00;;;;;;;13.44;66.87;98763.00;5020845;28;20164;-66
2023/04/02 00:45:00;;;;;;;40.13;16.90;;;;;;;13.40;66.58;98751.09;5054016;28;20101;-66
2023/04/02 00:47:31;;;;;;;43.83;16.55;;;;;;;13.65;67.03;98762.09;5021441;28;20044;-68
2023/04/02 00:50:20;;;;;;;;;;;;;;;13.98;65.06;98770.19;5037743;28;20063;-67
2023/04/02 00:52:49;;;;;;;39.30;18.17;;;;;;;13.66;65.75;98753.03;5012147;28;19920;-65
2023/04/02 00:55:35;;;;;;;41.25;16.02;;;;;;;13.54;65.97;98755.47;5022517;28;20109;-66
2023/04/02 00:58:01;;;;;;;43.60;17.30;;;;;;;13.56;65.43;98755.28;5022457;28;20048;-65
2023/04/02 01:00:34;;;;;;;35.72;16.13;;;;;;;13.68;66.08;98755.50;5039288;28;20048;-66
2023/04/02 01:03:16;;;;;;;37.88;16.45;;;;;;;13.90;65.76;98746.38;5055479;28;20413;-66
2023/04/02 01:05:44;;;;;;;;;;;;;;;14.08;64.67;98760.81;5022875;28;20052;-66
2023/04/02 01:08:15;;;;;;;44.15;16.17;;;;;;;14.02;64.86;98768.78;5022495;28;19920;-66
2023/04/02 01:10:46;;;;;;;35.70;15.23;;;;;;;13.91;64.66;98742.66;5039002;28;20048;-66
2023/04/02 01:13:43;;;;;;;38.55;15.93;;;;;;;14.14;64.56;98756.50;5022390;28;20072;-66
2023/04/02 01:16:36;;;;;;;35.33;16.33;;;;;;;14.17;64.76;98758.75;5022096;28;20052;-66
2023/04/02 01:19:06;;;;;;;35.33;15.98;;;;;;;13.51;64.43;98766.50;5039557;28;20052;-66
2023/04/02 01:21:51;;;;;;;35.92;14.93;;;;;;;14.18;63.88;98763.06;5023071;28;20547;-66
2023/04/02 01:24:18;;;;;;;37.35;15.30;;;;;;;13.88;63.92;98751.91;5056149;28;20249;-66
2023/04/02 01:27:01;;;;;;;33.05;15.43;;;;;;;14.29;63.47;98762.50;5022753;28;20518;-66
2023/04/02 01:29:38;;;;;;;37.17;15.40;;;;;;;13.99;63.33;98766.53;5023532;28;20391;-66
2023/04/02 01:32:16;;;;;;;34.15;14.70;;;;;;;14.14;63.62;98753.81;5056191;28;20558;-66
2023/04/02 01:34:45;;;;;;;33.53;15.32;;;;;;;13.93;64.07;98764.66;5056007;28;20054;-66
2023/04/02 01:37:38;;;;;;;37.97;15.13;;;;;;;14.24;63.54;98756.94;5023001;28;20372;-66
2023/04/02 01:40:19;;;;;;;31.10;14.60;;;;;;;13.59;63.10;98754.88;5022901;28;20082;-66
2023/04/02 01:43:11;;;;;;;32.00;14.25;;;;;;;14.24;63.11;98747.09;5022910;28;20041;-65
2023/04/02 01:45:38;;;;;;;29.30;14.35;;;;;;;13.87;62.28;98747.56;5022612;28;20051;-66
2023/04/02 01:48:16;;;;;;;30.35;13.70;;;;;;;14.43;62.22;98758.84;5023031;28;20048;-66
2023/04/02 01:50:44;;;;;;;25.77;12.55;;;;;;;14.10;62.25;98755.25;5055854;28;20140;-65
2023/04/02 01:53:15;;;;;;;28.33;14.65;;;;;;;13.92;62.96;98757.66;5006013;28;20492;-66
2023/04/02 01:55:45;;;;;;;25.63;13.15;;;;;;;13.97;63.03;98760.53;5055684;28;20052;-65
2023/04/02 01:58:13;;;;;;;30.17;13.43;;;;;;;13.82;63.15;98750.03;5039040;28;20048;-66
2023/04/02 02:00:56;;;;;;;29.30;14.15;;;;;;;14.20;62.93;98761.84;5023296;28;20044;-66
2023/04/02 02:03:23;;;;;;;28.33;13.07;;;;;;;13.66;62.50;98749.53;5039394;28;20378;-65
2023/04/02 02:05:49;;;;;;;26.33;12.65;;;;;;;13.57;63.42;98746.25;5022386;28;20040;-66
2023/04/02 02:08:37;;;;;;;30.73;12.68;;;;;;;13.94;63.35;98758.28;5054994;28;20382;-66
2023/04/02 02:11:07;;;;;;;27.13;13.05;;;;;;;13.54;63.52;98752.81;5038973;28;20501;-66
2023/04/02 02:13:35;;;;;;;27.58;13.27;;;;;;;13.32;63.69;98748.56;5006004;28;20417;-66
2023/04/02 02:16:03;;;;;;;26.75;12.57;;;;;;;13.72;64.00;98746.91;5022502;28;20049;-67
2023/04/02 02:18:29;;;;;;;30.00;13.43;;;;;;;13.71;63.23;98750.59;5006178;28;20102;-65
2023/04/02 02:20:57;;;;;;;32.35;12.65;;;;;;;13.53;63.53;98744.97;5022253;28;20041;-66
2023/04/02 02:23:23;;;;;;;28.75;11.25;;;;;;;13.31;63.24;98762.94;5004803;28;20039;-66
2023/04/02 02:25:49;;;;;;;24.33;11.77;;;;;;;13.18;63.63;98748.69;5037616;28;20052;-66
2023/04/02 02:28:41;;;;;;;27.13;12.32;;;;;;;14.07;62.92;98759.13;5004247;28;20048;-66
2023/04/02 02:31:16;;;;;;;29.25;12.88;;;;;;;13.72;63.57;98748.75;5001445;28;20147;-67
2023/04/02 02:33:48;;;;;;;24.15;11.32;;;;;;;13.80;63.17;98751.25;5021193;28;20052;-66
2023/04/02 02:36:24;;;;;;;26.67;12.25;;;;;;;14.05;63.19;98755.88;5021057;28;20131;-66
2023/04/02 02:38:55;;;;;;;27.05;11.80;;;;;;;14.03;62.52;98762.41;5053519;28;20044;-67
2023/04/02 02:41:38;;;;;;;28.52;11.73;;;;;;;13.82;62.43;98760.72;5039443;28;20040;-66
2023/04/02 02:44:07;;;;;;;27.55;11.90;;;;;;;13.71;62.84;98755.13;5037988;28;20076;-67
2023/04/02 02:46:39;;;;;;;25.65;11.32;;;;;;;13.81;62.20;98760.91;5021434;28;20045;-67
2023/04/02 02:49:14;;;;;;;24.70;11.68;;;;;;;13.90;61.85;98763.19;5038181;28;20046;-66
2023/04/02 02:51:47;;;;;;;22.88;10.80;;;;;;;13.84;61.83;98768.53;5021568;28;20082;-66
2023/04/02 02:54:19;;;;;;;24.25;11.77;;;;;;;13.53;61.77;98772.47;5006140;28;20048;-65
2023/04/02 02:56:51;;;;;;;22.83;10.40;;;;;;;13.76;61.81;98766.81;5037769;28;20063;-65
2023/04/02 02:59:18;;;;;;;27.17;11.30;;;;;;;13.53;61.67;98768.97;5038130;28;20040;-66
2023/04/02 03:01:46;;;;;;;20.75;10.05;;;;;;;13.54;61.59;98762.63;5021030;28;20046;-66
2023/04/02 03:04:13;;;;;;;23.33;10.82;;;;;;;13.50;61.16;98780.03;5021379;28;20080;-66
2023/04/02 03:06:39;;;;;;;25.85;11.73;;;;;;;13.56;60.72;98789.94;5021368;28;20048;-66
2023/04/02 03:09:22;;;;;;;21.52;10.38;;;;;;;13.72;61.40;98786.94;5004634;28;20560;-67
2023/04/02 03:12:41;;;;;;;18.55;9.82;;;;;;;13.86;60.90;98787.81;5004810;28;20135;-66
2023/04/02 03:15:16;;;;;;;22.17;9.70;;;;;;;13.79;61.05;98771.78;4993135;28;20061;-66
2023/04/02 03:18:06;;;;;;;21.38;10.10;;;;;;;13.66;61.38;98800.25;4961281;28;20084;-66
2023/04/02 03:20:54;;;;;;;20.58;10.02;;;;;;;13.92;60.20;98803.84;4961823;28;20049;-66
2023/04/02 03:23:34;;;;;;;16.08;8.65;;;;;;;13.74;60.62;98792.06;4977337;28;20045;-66
2023/04/02 03:26:09;;;;;;;18.33;9.40;;;;;;;13.64;60.62;98794.31;5006041;28;20045;-66
2023/04/02 03:28:40;;;;;;;21.58;9.40;;;;;;;13.62;60.33;98791.81;5034370;28;20084;-66
2023/04/02 03:31:15;;;;;;;23.70;9.73;;;;;;;13.63;60.40;98779.28;5050767;28;20111;-65
2023/04/02 03:33:49;;;;;;;20.08;9.05;;;;;;;13.38;60.29;98790.47;5017784;28;20118;-66
2023/04/02 03:36:21;;;;;;;21.75;9.82;;;;;;;13.66;60.10;98797.56;5001494;28;20128;-67
2023/04/02 03:38:52;;;;;;;17.73;10.13;;;;;;;13.51;60.33;98795.06;5017428;28;20051;-66
2023/04/02 03:41:33;;;;;;;18.23;9.93;;;;;;;13.84;59.66;98792.53;5017835;28;20056;-66
2023/04/02 03:44:06;;;;;;;19.73;9.23;;;;;;;13.64;59.63;98799.63;5017633;28;20052;-66
2023/04/02 03:46:37;;;;;;;21.35;9.77;;;;;;;13.66;59.38;98792.25;5002196;28;20406;-66
2023/04/02 03:49:09;;;;;;;23.83;10.15;;;;;;;13.78;58.96;98796.81;5019428;28;20434;-66
2023/04/02 03:51:41;;;;;;;18.02;9.60;;;;;;;13.34;58.39;98799.06;5038302;28;20457;-69
2023/04/02 03:54:12;;;;;;;20.33;9.77;;;;;;;13.70;58.95;98801.50;5005205;28;20139;-66
2023/04/02 03:56:40;;;;;;;23.25;9.23;;;;;;;13.57;58.71;98797.75;5021373;28;20044;-66
2023/04/02 03:59:15;;;;;;;18.88;9.18;;;;;;;13.90;58.21;98781.06;5038644;28;20060;-65
2023/04/02 04:02:01;;;;;;;19.90;8.82;;;;;;;13.77;57.89;98799.69;5054755;28;20531;-65
2023/04/02 04:04:30;;;;;;;18.90;9.65;;;;;;;13.83;57.74;98790.88;5054469;28;20052;-65
2023/04/02 04:06:57;;;;;;;21.88;9.90;;;;;;;13.80;57.55;98793.94;5037961;28;20059;-65
2023/04/02 04:09:28;;;;;;;21.45;10.30;;;;;;;13.52;56.80;98799.34;5004614;28;20061;-66
2023/04/02 04:12:22;;;;;;;22.20;10.00;;;;;;;14.39;56.67;98805.69;5037383;28;20057;-65
2023/04/02 04:14:55;;;;;;;18.30;9.85;;;;;;;14.08;57.04;98808.03;5020699;28;20433;-65
2023/04/02 04:17:50;;;;;;;22.20;10.07;;;;;;;14.24;56.52;98813.03;5021175;28;20056;-64
2023/04/02 04:20:22;;;;;;;19.70;10.02;;;;;;;13.82;57.46;98807.94;5015735;28;20037;-64
2023/04/02 04:22:54;;;;;;;22.38;9.93;;;;;;;13.72;56.44;98829.63;5022258;28;20055;-65
2023/04/02 04:25:32;;;;;;;23.17;10.13;;;;;;;13.98;57.47;98818.25;5038655;28;20137;-65
2023/04/02 04:28:28;;;;;;;22.83;10.35;;;;;;;13.97;57.56;98806.75;5022770;28;20045;-65
2023/04/02 04:31:02;;;;;;;19.60;9.70;;;;;;;13.88;57.45;98805.28;5037130;28;20043;-65
2023/04/02 04:33:38;;;;;;;18.80;10.02;;;;;;;13.92;57.04;98819.88;5005062;28;20090;-65
2023/04/02 04:36:46;;;;;;;18.30;10.13;;;;;;;13.93;57.20;98828.72;5004898;28;20044;-65
2023/04/02 04:39:28;;;;;;;21.70;10.43;;;;;;;13.84;58.00;98813.91;4960874;28;20081;-68
2023/04/02 04:41:58;;;;;;;20.33;10.52;;;;;;;13.83;57.40;98822.91;4960630;28;20038;-66
2023/04/02 04:44:31;;;;;;;19.02;10.32;;;;;;;13.80;57.38;98821.47;4976332;28;20065;-65
2023/04/02 04:47:13;;;;;;;20.00;10.63;;;;;;;14.12;57.28;98831.47;4960236;28;20476;-68
2023/04/02 04:49:46;;;;;;;21.45;10.38;;;;;;;13.90;56.52;98831.78;4960168;28;20121;-69
2023/04/02 04:52:24;;;;;;;20.77;9.50;;;;;;;14.23;56.23;98830.88;4973055;28;20141;-69
2023/04/02 04:54:50;;;;;;;19.33;10.40;;;;;;;13.69;56.05;98835.38;4956957;28;20056;-70
2023/04/02 04:57:30;;;;;;;18.92;10.70;;;;;;;14.00;56.90;98838.41;4999289;28;20140;-67
2023/04/02 05:00:11;;;;;;;20.05;10.52;;;;;;;13.81;58.08;98836.44;4999524;28;20037;-72
2023/04/02 05:02:49;;;;;;;21.42;11.68;;;;;;;13.89;57.93;98835.47;5000782;28;20142;-72
2023/04/02 05:05:28;;;;;;;20.60;10.57;;;;;;;14.21;56.96;98840.09;5000419;28;20053;-71
2023/04/02 05:08:09;;;;;;;22.08;11.43;;;;;;;14.17;56.64;98837.03;5000716;28;20064;-70
2023/04/02 05:10:41;;;;;;;26.85;12.18;;;;;;;13.90;57.40;98842.47;4968360;28;20037;-69
2023/04/02 05:13:20;;;;;;;25.25;12.15;;;;;;;14.12;57.60;98838.63;5000781;28;20048;-75
2023/04/02 05:16:05;;;;;;;28.42;12.50;;;;;;;14.09;56.68;98847.03;5016205;28;20081;-74
2023/04/02 05:18:37;;;;;;;25.45;12.57;;;;;;;14.16;56.39;98840.72;4984085;28;20423;-74
2023/04/02 05:21:19;;;;;;;21.38;11.85;;;;;;;14.11;57.10;98842.34;4977628;28;20053;-77
2023/04/02 05:23:55;;;;;;;24.15;11.55;;;;;;;14.14;56.77;98849.94;5003539;28;20052;-71
2023/04/02 05:26:25;;;;;;;23.25;11.70;;;;;;;14.09;56.30;98863.06;5003427;28;20040;-73
2023/04/02 05:29:00;;;;;;;26.95;12.88;;;;;;;14.14;56.40;98863.31;5019627;28;20092;-74
2023/04/02 05:31:55;;;;;;;23.75;12.18;;;;;;;14.29;56.17;98851.47;5019800;28;20395;-74
2023/04/02 05:34:27;;;;;;;22.65;12.68;;;;;;;14.18;55.85;98856.53;5019821;28;20041;-73
2023/04/02 05:36:54;;;;;;;23.35;12.70;;;;;;;13.44;55.78;98859.03;5019638;28;20057;-74
2023/04/02 05:39:22;;;;;;;23.33;11.43;;;;;;;14.16;55.96;98853.25;5019648;28;20049;-73
2023/04/02 05:42:05;;;;;;;24.23;12.57;;;;;;;14.32;55.83;98864.44;5018455;28;20041;-70
2023/04/02 05:45:15;;;;;;;23.90;11.55;;;;;;;14.46;55.74;98862.63;5004412;28;20440;-72
2023/04/02 05:47:42;;;;;;;24.45;11.63;;;;;;;14.20;55.18;98855.31;5019293;28;20072;-74
2023/04/02 05:50:23;;;;;;;23.02;12.10;;;;;;;14.52;54.61;98875.16;5020497;28;20482;-73
2023/04/02 05:52:53;;;;;;;24.85;11.93;;;;;;;14.22;54.94;98863.94;5021084;28;20059;-71
2023/04/02 05:55:25;;;;;;;23.80;12.20;;;;;;;14.51;54.66;98868.19;5002794;28;20052;-72
2023/04/02 05:57:56;;;;;;;25.75;12.07;;;;;;;14.55;54.46;98867.59;5005456;28;20130;-73
2023/04/02 06:00:37;;;;;;;24.00;12.02;;;;;;;15.04;52.94;98870.75;5000317;28;20040;-73
2023/04/02 06:03:09;;;;;;;23.05;12.40;;;;;;;14.65;52.81;98876.03;5051915;28;20040;-73
2023/04/02 06:05:39;;;;;;;24.60;12.88;;;;;;;14.93;52.64;98867.84;5016794;28;20483;-73
2023/04/02 06:08:06;;;;;;;23.10;11.48;;;;;;;14.52;51.53;98881.34;5020869;28;20109;-73
2023/04/02 06:10:35;;;;;;;24.48;12.57;;;;;;;14.55;52.49;98867.59;5015571;28;20378;-72
2023/04/02 06:13:07;;;;;;;23.70;12.43;;;;;;;14.50;52.65;98867.34;5020511;28;20166;-72
2023/04/02 06:15:38;;;;;;;21.90;12.15;;;;;;;14.13;51.90;98877.69;5035586;28;20068;-74
2023/04/02 06:18:19;;;;;;;21.35;11.30;;;;;;;14.33;52.96;98865.28;5023744;28;20048;-72
2023/04/02 06:20:47;;;;;;;21.95;11.25;;;;;;;13.98;52.73;98863.63;5005747;28;20048;-71
2023/04/02 06:23:52;;;;;;;24.23;11.93;;;;;;;14.81;51.51;98885.50;5022955;28;20139;-71
2023/04/02 06:26:26;;;;;;;20.92;11.95;;;;;;;14.43;51.28;98860.34;5053244;28;20134;-72
2023/04/02 06:29:03;;;;;;;30.73;12.15;;;;;;;14.93;51.62;98863.34;5034085;28;20050;-72
2023/04/02 06:31:39;;;;;;;25.50;10.98;;;;;;;14.82;50.98;98849.75;5036797;28;20088;-71
2023/04/02 06:34:15;;;;;;;19.35;11.88;;;;;;;14.97;50.85;98866.44;5005752;28;20040;-72
2023/04/02 06:36:46;;;;;;;19.52;11.38;;;;;;;14.87;50.00;98863.31;5037169;28;20115;-72
2023/04/02 06:39:21;;;;;;;23.05;11.52;;;;;;;14.99;50.43;98873.19;5021070;28;20063;-71
2023/04/02 06:42:11;;;;;;;19.88;11.13;;;;;;;15.40;49.54;98881.06;5020335;28;20036;-70
2023/04/02 06:44:55;;;;;;;20.67;11.35;;;;;;;14.59;49.33;98871.50;5038954;28;20418;-69
2023/04/02 06:47:49;;;;;;;18.08;11.18;;;;;;;15.11;48.72;98881.47;5025517;28;20063;-69
2023/04/02 06:50:40;;;;;;;20.00;11.20;;;;;;;14.93;49.43;98875.88;5022578;28;20052;-72
2023/04/02 06:53:10;;;;;;;20.02;11.07;;;;;;;15.03;49.57;98881.66;5015295;28;20037;-69
2023/04/02 06:56:00;;;;;;;21.60;11.70;;;;;;;15.10;48.68;98890.50;4983024;28;20135;-69
2023/04/02 06:58:29;;;;;;;20.00;10.98;;;;;;;14.52;48.70;98881.34;5014965;28;20137;-68
2023/04/02 07:00:55;;;;;;;21.33;11.82;;;;;;;14.96;48.67;98880.84;5010364;28;20036;-75
2023/04/02 07:03:37;;;;;;;22.73;12.27;;;;;;;14.81;48.57;98886.34;5025805;28;20052;-70
2023/04/02 07:06:20;;;;;;;21.63;12.18;;;;;;;15.13;48.54;98892.75;5009004;28;20036;-69
2023/04/02 07:08:48;;;;;;;27.95;12.00;;;;;;;14.81;48.28;98885.50;5005570;28;20050;-69
2023/04/02 07:11:17;;;;;;;26.13;12.68;;;;;;;15.08;48.35;98881.88;5021316;28;20620;-70
2023/04/02 07:13:44;;;;;;;24.58;12.85;;;;;;;15.21;48.55;98889.88;5037560;28;20044;-69
2023/04/02 07:16:18;;;;;;;21.77;12.68;;;;;;;15.37;48.19;98902.88;5054218;28;20118;-70
2023/04/02 07:18:45;;;;;;;23.30;12.65;;;;;;;14.90;48.78;98892.31;5021003;28;20215;-70
2023/04/02 07:21:11;;;;;;;22.80;12.77;;;;;;;14.96;48.27;98904.91;5037249;28;20044;-70
2023/04/02 07:23:37;;;;;;;27.25;12.70;;;;;;;15.07;47.85;98899.75;5019267;28;20040;-70
2023/04/02 07:26:04;;;;;;;21.80;12.13;;;;;;;15.40;47.83;98891.78;5035762;28;20076;-71
2023/04/02 07:28:30;;;;;;;23.15;12.55;;;;;;;15.04;47.24;98899.34;5014918;28;20054;-70
2023/04/02 07:30:56;;;;;;;23.63;13.05;;;;;;;15.09;47.35;98891.53;5051292;28;20115;-70
2023/04/02 07:33:25;;;;;;;22.52;12.43;;;;;;;15.49;47.38;98901.22;5019753;28;20045;-73
2023/04/02 07:35:52;;;;;;;20.25;12.20;;;;;;;15.35;47.10;98901.41;5031685;28;20118;-70
2023/04/02 07:38:18;;;;;;;21.58;12.13;;;;;;;14.90;47.83;98913.72;5053197;28;20037;-69
2023/04/02 07:40:44;;;;;;;22.33;12.23;;;;;;;14.80;48.26;98907.94;5019954;28;20047;-69
2023/04/02 07:43:10;;;;;;;20.92;12.27;;;;;;;14.90;48.22;98913.72;5020003;28;20475;-70
2023/04/02 07:45:36;;;;;;;25.38;12.75;;;;;;;14.85;48.51;98908.16;5003164;28;20102;-75
2023/04/02 07:48:10;;;;;;;30.08;12.48;;;;;;;15.21;49.06;98925.50;5003478;28;20032;-71
2023/04/02 07:50:36;;;;;;;25.50;13.15;;;;;;;14.59;48.89;98913.44;5032554;28;20055;-69
2023/04/02 07:53:02;;;;;;;23.30;13.23;;;;;;;14.45;49.63;98922.44;5002518;28;20269;-68
2023/04/02 07:55:28;;;;;;;22.02;12.55;;;;;;;14.71;49.42;98922.53;5019413;28;20104;-69
2023/04/02 07:57:58;;;;;;;26.92;12.98;;;;;;;14.84;49.79;98923.38;5019820;28;20048;-70
2023/04/02 08:00:25;;;;;;;21.15;12.40;;;;;;;14.52;50.16;98913.41;5002995;28;20547;-70
2023/04/02 08:02:51;;;;;;;22.95;12.43;;;;;;;14.70;49.98;98920.84;5052397;28;20577;-70
2023/04/02 08:05:18;;;;;;;23.45;12.15;;;;;;;14.30;50.39;98935.13;5035919;28;20028;-69
2023/04/02 08:07:51;;;;;;;21.30;11.60;;;;;;;14.68;50.80;98922.94;5002917;28;20102;-70
2023/04/02 08:10:18;;;;;;;23.40;12.43;;;;;;;14.29;51.00;98918.25;5033936;28;20486;-68
2023/04/02 08:12:44;;;;;;;24.17;12.57;;;;;;;14.45;50.70;98922.44;5003104;28;20131;-70
2023/04/02 08:15:14;;;;;;;25.95;13.20;;;;;;;14.62;51.58;98919.19;5012983;28;20057;-69
2023/04/02 08:17:40;;;;;;;29.27;13.93;;;;;;;14.18;51.16;98915.28;5010617;28;20188;-70
2023/04/02 08:20:06;;;;;;;24.45;13.60;;;;;;;14.47;50.85;98913.19;4980042;28;20425;-71
2023/04/02 08:22:32;;;;;;;25.08;14.13;;;;;;;14.25;51.48;98911.69;5012700;28;20052;-74
2023/04/02 08:24:58;;;;;;;24.55;12.93;;;;;;;14.32;50.79;98917.84;4977554;28;20387;-69
2023/04/02 08:27:25;;;;;;;20.83;11.65;;;;;;;14.46;50.90;98924.06;5012388;28;20029;-73
2023/04/02 08:29:51;;;;;;;23.75;13.20;;;;;;;14.40;50.69;98920.38;4996150;28;20042;-71
2023/04/02 08:32:17;;;;;;;24.98;12.35;;;;;;;14.54;50.71;98939.94;4996002;28;20399;-70
2023/04/02 08:34:45;;;;;;;25.10;13.18;;;;;;;14.44;50.73;98932.28;4996671;28;20042;-70
2023/04/02 08:37:12;;;;;;;25.42;12.07;;;;;;;14.69;50.73;98916.53;5000109;28;20132;-69
2023/04/02 08:39:38;;;;;;;22.15;12.65;;;;;;;14.54;50.91;98921.22;5017365;28;20059;-72
2023/04/02 08:42:07;;;;;;;26.90;12.55;;;;;;;14.92;51.30;98930.38;5000567;28;20045;-70
2023/04/02 08:44:44;;;;;;;21.58;12.63;;;;;;;14.95;51.31;98921.94;5017018;28;20054;-70
2023/04/02 08:47:12;;;;;;;25.33;14.52;;;;;;;15.11;51.13;98929.59;5033826;28;20128;-73
2023/04/02 08:49:46;;;;;;;23.02;11.80;;;;;;;15.12;50.75;98925.88;5000924;28;20048;-70
2023/04/02 08:52:25;;;;;;;26.73;12.52;;;;;;;15.28;50.59;98930.84;5016917;28;20045;-70
2023/04/02 08:54:52;;;;;;;22.40;12.07;;;;;;;14.77;50.36;98913.69;5000692;28;20045;-71
2023/04/02 08:57:45;;;;;;;22.20;11.95;;;;;;;15.49;50.44;98919.13;4998269;28;20513;-72
2023/04/02 09:00:19;;;;;;;22.60;12.40;;;;;;;15.16;50.79;98927.94;5016679;28;20041;-70
2023/04/02 09:02:53;;;;;;;21.83;11.60;;;;;;;15.11;51.14;98932.28;5014984;28;20498;-71
2023/04/02 09:05:27;;;;;;;24.23;12.40;;;;;;;15.19;51.06;98922.19;5000367;28;20037;-70
2023/04/02 09:07:55;;;;;;;22.42;11.02;;;;;;;15.23;50.99;98926.13;5033099;28;20045;-69
2023/04/02 09:10:36;;;;;;;23.10;11.93;;;;;;;15.62;50.33;98949.38;5016473;28;20587;-70
2023/04/02 09:13:09;;;;;;;20.65;10.55;;;;;;;15.26;50.00;98930.22;5033064;28;20048;-70
2023/04/02 09:15:35;;;;;;;21.55;12.20;;;;;;;15.07;50.20;98937.19;5032912;28;20071;-70
2023/04/02 09:18:15;;;;;;;18.63;10.73;;;;;;;15.52;50.19;98922.22;5016877;28;20095;-70
2023/04/02 09:20:42;;;;;;;22.10;9.90;;;;;;;15.22;49.87;98918.31;5016764;28;20045;-69
2023/04/02 09:23:21;;;;;;;21.88;10.95;;;;;;;15.41;50.79;98933.56;5032546;28;20064;-70
2023/04/02 09:25:50;;;;;;;17.30;10.32;;;;;;;15.18;50.33;98923.22;4983646;28;20056;-70
2023/04/02 09:28:16;;;;;;;17.45;9.90;;;;;;;15.07;49.85;98933.69;5000176;28;20484;-70
2023/04/02 09:31:08;;;;;;;21.50;10.40;;;;;;;15.64;50.05;98931.28;4984086;28;20100;-70
2023/04/02 09:33:47;;;;;;;18.23;10.48;;;;;;;15.55;50.06;98932.53;5015802;28;20037;-70
2023/04/02 09:36:21;;;;;;;21.52;10.43;;;;;;;15.68;49.81;98932.53;5031312;28;20380;-70
2023/04/02 09:39:17;;;;;;;19.38;10.05;;;;;;;15.81;49.58;98937.03;5015146;28;20041;-69
2023/04/02 09:41:44;;;;;;;22.25;11.73;;;;;;;15.38;49.55;98935.81;5016283;28;20095;-69
2023/04/02 09:44:22;;;;;;;22.98;10.35;;;;;;;15.64;49.25;98927.75;5031371;28;20068;-69
2023/04/02 09:46:52;;;;;;;19.25;10.23;;;;;;;15.54;48.87;98940.75;5032116;28;20476;-68
2023/04/02 09:49:25;;;;;;;20.35;10.63;;;;;;;16.00;48.63;98930.81;5017360;28;20390;-70
2023/04/02 09:52:19;;;;;;;21.63;9.80;;;;;;;16.39;48.18;98941.44;5016421;28;20119;-71
2023/04/02 09:54:46;;;;;;;19.52;9.18;;;;;;;15.75;48.62;98937.84;4998491;28;20084;-70
2023/04/02 09:57:22;;;;;;;18.77;9.23;;;;;;;16.00;49.26;98926.28;4998329;28;20386;-70
2023/04/02 10:00:08;;;;;;;18.80;9.68;;;;;;;15.96;48.98;98935.75;5013074;28;20046;-70
2023/04/02 10:02:40;;;;;;;17.98;10.30;;;;;;;15.58;49.73;98937.47;5015575;28;20056;-70
2023/04/02 10:05:17;;;;;;;18.52;10.05;;;;;;;15.87;49.93;98925.47;5030787;28;20490;-68
2023/04/02 10:07:46;;;;;;;22.83;11.13;;;;;;;15.57;49.54;98933.16;5014845;28;20063;-69
2023/04/02 10:10:36;;;;;;;20.10;11.90;;;;;;;16.29;48.40;98938.34;5026560;28;20060;-71
2023/04/02 10:13:03;;;;;;;25.13;12.27;;;;;;;15.09;49.81;98937.81;5028598;28;20071;-71
2023/04/02 10:15:42;;;;;;;22.23;12.88;;;;;;;16.01;49.75;98927.09;5013762;28;20053;-71
2023/04/02 10:18:32;;;;;;;27.35;13.07;;;;;;;16.05;49.62;98923.78;5014507;28;20048;-71
2023/04/02 10:21:00;;;;;;;21.75;11.65;;;;;;;16.17;48.26;98921.28;4992612;28;20050;-69
2023/04/02 10:23:28;;;;;;;18.52;10.90;;;;;;;16.44;47.61;98931.75;4990203;28;20046;-70
2023/04/02 10:26:11;;;;;;;24.45;11.35;;;;;;;17.11;46.32;98938.41;4974242;28;20061;-69
2023/04/02 10:28:49;;;;;;;19.27;10.27;;;;;;;17.32;46.07;98919.25;4990621;28;20057;-69
2023/04/02 10:31:24;;;;;;;22.75;11.60;;;;;;;16.92;46.36;98925.94;4976315;28;20046;-70
2023/04/02 10:33:53;;;;;;;25.27;12.00;;;;;;;17.22;45.41;98933.16;4991624;28;20046;-70
2023/04/02 10:36:30;;;;;;;20.70;11.15;;;;;;;17.26;45.50;98925.50;4975245;28;20073;-69
2023/04/02 10:39:31;;;;;;;28.33;12.27;;;;;;;17.88;44.47;98928.91;4959191;28;20507;-69
2023/04/02 10:42:02;;;;;;;;;;;;;;;18.64;42.07;98929.31;4943221;28;20053;-70
2023/04/02 10:44:28;;;;;;;;;;;;;;;18.82;41.37;98942.72;4943530;28;19945;-70
2023/04/02 10:47:07;;;;;;;20.60;10.10;;;;;;;18.01;41.60;98941.38;4942905;28;20419;-70
2023/04/02 10:50:03;;;;;;;19.10;11.27;;;;;;;19.09;41.13;98943.19;4943636;28;20421;-71
2023/04/02 10:52:35;;;;;;;26.85;10.50;;;;;;;19.18;40.57;98939.13;4926959;28;20045;-69
2023/04/02 10:55:05;;;;;;;20.73;10.45;;;;;;;19.52;39.93;98933.03;4942558;28;20068;-69
2023/04/02 10:57:33;;;;;;;19.33;9.20;;;;;;;19.49;39.44;98931.63;4958820;28;20396;-69
2023/04/02 11:00:17;;;;;;;18.80;9.63;;;;;;;19.83;38.80;98938.91;4942013;28;20042;-70
2023/04/02 11:03:06;;;;;;;19.17;9.60;;;;;;;20.35;37.73;98931.75;4942781;28;20045;-70
2023/04/02 11:05:42;;;;;;;25.35;9.73;;;;;;;20.19;37.10;98929.78;4958833;28;20494;-69
2023/04/02 11:08:21;;;;;;;19.42;11.02;;;;;;;21.60;35.44;98933.34;4974536;28;20046;-70
2023/04/02 11:10:52;;;;;;;18.65;8.98;;;;;;;22.10;34.33;98914.38;4958898;28;20046;-70
2023/04/02 11:13:22;;;;;;;13.55;8.70;;;;;;;23.20;32.09;98915.75;4930541;28;20060;-70
2023/04/02 11:15:48;;;;;;;14.52;8.93;;;;;;;23.14;31.16;98923.00;4992161;28;20058;-70
2023/04/02 11:18:23;;;;;;;14.07;8.93;;;;;;;23.01;32.30;98915.28;4943763;28;20064;-70
2023/04/02 11:20:50;;;;;;;17.63;9.23;;;;;;;21.57;33.97;98902.22;4975531;28;20084;-70
2023/04/02 11:23:19;;;;;;;16.70;9.55;;;;;;;21.38;34.33;98925.16;4959307;28;20061;-71
2023/04/02 11:25:46;;;;;;;21.20;10.37;;;;;;;20.61;35.84;98903.41;4943509;28;20046;-70
2023/04/02 11:28:32;;;;;;;40.42;17.73;;;;;;;20.80;35.94;98904.88;4943305;28;20304;-71
2023/04/02 11:30:58;;;;;;;18.75;10.00;;;;;;;19.73;37.08;98892.88;4958811;28;20457;-70
2023/04/02 11:33:30;;;;;;;17.77;9.77;;;;;;;19.50;37.78;98900.09;4942977;28;20042;-70
2023/04/02 11:35:56;;;;;;;20.90;10.23;;;;;;;18.55;39.19;98897.56;4958986;28;20137;-70
2023/04/02 11:38:22;;;;;;;18.85;9.38;;;;;;;18.20;40.07;98894.69;4942988;28;20132;-70
2023/04/02 11:40:55;;;;;;;16.02;8.95;;;;;;;17.97;41.03;98903.41;4959303;28;20477;-71
2023/04/02 11:43:34;;;;;;;21.90;10.07;;;;;;;18.40;41.06;98903.34;4991826;28;20050;-73
2023/04/02 11:46:04;;;;;;;26.40;10.43;;;;;;;18.29;41.36;98902.22;4991364;28;20054;-71
2023/04/02 11:48:39;;;;;;;21.55;9.77;;;;;;;18.55;40.74;98906.47;4974673;28;20042;-69
2023/04/02 11:51:14;;;;;;;19.80;10.32;;;;;;;18.54;40.97;98886.00;4975205;28;20058;-72
2023/04/02 11:53:43;;;;;;;24.45;10.15;;;;;;;18.11;40.65;98896.03;4975203;28;20075;-69